Time;durP1;ratioP1;P1;durP2;ratioP2;P2;SDS_P1;SDS_P2;PMS_P1;PMS_P2;Temp;Humidity;BMP_temperature;BMP_pressure;BME280_temperature;BME280_humidity;BME280_pressure;Samples;Min_cycle;Max_cycle;Signal;HPM_P1;HPM_P2
2022/10/09 00:01:23;;;;;;;23.58;16.23;;;;;;;;;;5055219;28;20241;-58
2022/10/09 00:03:52;;;;;;;23.85;16.85;;;;;;;;;;5054771;28;20220;-58
2022/10/09 00:06:22;;;;;;;22.60;15.60;;;;;;;;;;5055097;28;20234;-58
2022/10/09 00:08:49;;;;;;;25.27;15.38;;;;;;;;;;5055023;28;20218;-58
2022/10/09 00:11:22;;;;;;;25.75;16.77;;;;;;;;;;5054866;28;20300;-58
2022/10/09 00:13:50;;;;;;;24.90;16.20;;;;;;;;;;5054826;28;20226;-58
2022/10/09 00:16:18;;;;;;;24.35;16.13;;;;;;;;;;5055256;28;20210;-58
2022/10/09 00:18:45;;;;;;;26.83;16.05;;;;;;;;;;5055010;28;20211;-58
2022/10/09 00:21:28;;;;;;;24.25;15.63;;;;;;;;;;5055050;28;20534;-58
2022/10/09 00:23:57;;;;;;;25.25;15.88;;;;;;;;;;5044746;28;20287;-58
2022/10/09 00:26:25;;;;;;;27.10;16.40;;;;;;;;;;5035078;28;20290;-58
2022/10/09 00:28:52;;;;;;;27.17;15.20;;;;;;;;;;5054025;28;20246;-58
2022/10/09 00:31:19;;;;;;;22.48;15.85;;;;;;;;;;5053867;28;20670;-58
2022/10/09 00:33:47;;;;;;;37.25;16.73;;;;;;;;;;5053196;28;20251;-59
2022/10/09 00:36:16;;;;;;;21.45;15.35;;;;;;;;;;5054763;28;20200;-58
2022/10/09 00:38:43;;;;;;;23.30;15.20;;;;;;;;;;5054437;28;20204;-58
2022/10/09 00:41:16;;;;;;;25.25;16.15;;;;;;;;;;5054592;28;20526;-58
2022/10/09 00:43:49;;;;;;;25.30;14.85;;;;;;;;;;5054653;28;20207;-58
2022/10/09 00:46:26;;;;;;;24.05;15.88;;;;;;;;;;5055041;28;20522;-58
2022/10/09 00:49:08;;;;;;;25.70;16.25;;;;;;;;;;5054502;28;20195;-58
2022/10/09 00:51:36;;;;;;;24.10;15.23;;;;;;;;;;5054102;28;20203;-58
2022/10/09 00:54:04;;;;;;;25.35;15.15;;;;;;;;;;5053481;28;20653;-58
2022/10/09 00:56:33;;;;;;;23.60;15.98;;;;;;;;;;5053471;28;20232;-58
2022/10/09 00:59:00;;;;;;;24.17;15.07;;;;;;;;;;5037310;28;20196;-57
2022/10/09 01:01:27;;;;;;;24.85;14.98;;;;;;;;;;5054374;28;20282;-58
2022/10/09 01:03:54;;;;;;;28.70;16.40;;;;;;;;;;5054563;28;20199;-58
2022/10/09 01:06:30;;;;;;;24.25;16.00;;;;;;;;;;5054557;28;20204;-58
2022/10/09 01:09:02;;;;;;;26.42;16.23;;;;;;;;;;5053756;28;20203;-58
2022/10/09 01:11:48;;;;;;;25.45;15.70;;;;;;;;;;5053383;28;20666;-58
2022/10/09 01:14:15;;;;;;;27.13;17.08;;;;;;;;;;5053442;28;20237;-58
2022/10/09 01:16:49;;;;;;;25.48;16.17;;;;;;;;;;5053986;28;20222;-58
2022/10/09 01:19:49;;;;;;;26.90;15.63;;;;;;;;;;5055014;28;20195;-58
2022/10/09 01:22:38;;;;;;;25.38;15.25;;;;;;;;;;5057005;28;20219;-57
2022/10/09 01:25:20;;;;;;;28.52;15.55;;;;;;;;;;5058341;28;20254;-58
2022/10/09 01:27:47;;;;;;;28.20;15.65;;;;;;;;;;5057186;28;20208;-57
2022/10/09 01:30:14;;;;;;;27.38;16.30;;;;;;;;;;5057951;28;20204;-58
2022/10/09 01:32:47;;;;;;;22.67;15.43;;;;;;;;;;5057051;28;20228;-58
2022/10/09 01:35:16;;;;;;;23.58;16.20;;;;;;;;;;5057222;28;20203;-58
2022/10/09 01:37:44;;;;;;;24.55;15.93;;;;;;;;;;5058108;28;20214;-58
2022/10/09 01:40:13;;;;;;;24.75;16.38;;;;;;;;;;5057869;28;20246;-58
2022/10/09 01:42:41;;;;;;;31.60;15.73;;;;;;;;;;5057685;28;20211;-58
2022/10/09 01:45:08;;;;;;;26.90;15.90;;;;;;;;;;5056845;28;20591;-58
2022/10/09 01:47:35;;;;;;;22.77;14.57;;;;;;;;;;5056905;28;20204;-58
2022/10/09 01:50:11;;;;;;;26.60;15.80;;;;;;;;;;5057058;28;20211;-58
2022/10/09 01:53:15;;;;;;;28.10;14.70;;;;;;;;;;5056524;28;20285;-58
2022/10/09 01:55:47;;;;;;;26.77;14.00;;;;;;;;;;5015837;28;20213;-57
2022/10/09 01:58:26;;;;;;;28.08;15.23;;;;;;;;;;5016651;28;20223;-58
2022/10/09 02:01:17;;;;;;;23.25;14.52;;;;;;;;;;5016258;28;20237;-58
2022/10/09 02:03:48;;;;;;;26.42;15.25;;;;;;;;;;5006743;28;20295;-58
2022/10/09 02:06:17;;;;;;;24.08;14.75;;;;;;;;;;4983851;28;20218;-58
2022/10/09 02:08:47;;;;;;;25.90;15.20;;;;;;;;;;5015868;28;20233;-58
2022/10/09 02:11:14;;;;;;;24.67;16.05;;;;;;;;;;5015737;28;20197;-58
2022/10/09 02:13:43;;;;;;;34.20;14.27;;;;;;;;;;5015760;28;20221;-58
2022/10/09 02:16:27;;;;;;;26.58;14.50;;;;;;;;;;5015901;28;20211;-58
2022/10/09 02:19:06;;;;;;;21.92;13.88;;;;;;;;;;5015663;28;20715;-58
2022/10/09 02:21:41;;;;;;;20.83;13.20;;;;;;;;;;5015875;28;20205;-58
2022/10/09 02:24:18;;;;;;;24.80;13.63;;;;;;;;;;5015555;28;20740;-58
2022/10/09 02:26:45;;;;;;;21.90;13.75;;;;;;;;;;5015480;28;20682;-58
2022/10/09 02:29:13;;;;;;;25.25;14.85;;;;;;;;;;4999166;28;20205;-58
2022/10/09 02:31:42;;;;;;;31.52;14.32;;;;;;;;;;5042774;28;20196;-58
2022/10/09 02:34:11;;;;;;;25.20;14.52;;;;;;;;;;5055948;28;20220;-58
2022/10/09 02:36:39;;;;;;;28.90;13.57;;;;;;;;;;5056844;28;20212;-58
2022/10/09 02:39:06;;;;;;;25.98;14.02;;;;;;;;;;5056534;28;20200;-58
2022/10/09 02:41:34;;;;;;;20.20;12.82;;;;;;;;;;5055814;28;20262;-58
2022/10/09 02:44:02;;;;;;;20.58;13.27;;;;;;;;;;5057310;28;20286;-58
2022/10/09 02:46:29;;;;;;;20.70;12.98;;;;;;;;;;5056666;28;20208;-58
2022/10/09 02:48:56;;;;;;;26.83;13.68;;;;;;;;;;5056686;28;20196;-58
2022/10/09 02:51:24;;;;;;;21.23;13.48;;;;;;;;;;5056475;28;20619;-58
2022/10/09 02:53:52;;;;;;;23.45;14.00;;;;;;;;;;5056193;28;20288;-58
2022/10/09 02:56:21;;;;;;;20.50;13.38;;;;;;;;;;5056430;28;20587;-58
2022/10/09 02:58:47;;;;;;;25.75;12.30;;;;;;;;;;5056538;28;20227;-58
2022/10/09 03:01:15;;;;;;;20.98;11.85;;;;;;;;;;5056765;28;20227;-58
2022/10/09 03:03:42;;;;;;;24.92;11.23;;;;;;;;;;5056374;28;20290;-58
2022/10/09 03:06:14;;;;;;;18.13;10.43;;;;;;;;;;5056224;28;20302;-58
2022/10/09 03:08:44;;;;;;;17.50;9.75;;;;;;;;;;5056016;28;20568;-58
2022/10/09 03:11:12;;;;;;;17.38;10.60;;;;;;;;;;5056491;28;20206;-57
2022/10/09 03:13:39;;;;;;;23.77;10.20;;;;;;;;;;5056089;28;20239;-58
2022/10/09 03:16:12;;;;;;;18.25;10.13;;;;;;;;;;5056088;28;20219;-58
2022/10/09 03:18:39;;;;;;;14.73;9.00;;;;;;;;;;5056044;28;20628;-58
2022/10/09 03:21:07;;;;;;;16.88;9.13;;;;;;;;;;5055680;28;20707;-58
2022/10/09 03:23:35;;;;;;;17.38;9.23;;;;;;;;;;5056158;28;20277;-58
2022/10/09 03:26:04;;;;;;;15.43;8.63;;;;;;;;;;5055824;28;20204;-57
2022/10/09 03:28:31;;;;;;;12.90;8.32;;;;;;;;;;5056260;28;20204;-58
2022/10/09 03:30:58;;;;;;;17.27;8.32;;;;;;;;;;5054901;28;20261;-58
2022/10/09 03:33:25;;;;;;;15.80;8.05;;;;;;;;;;5055370;28;20230;-57
2022/10/09 03:35:52;;;;;;;15.95;8.35;;;;;;;;;;5055746;28;20234;-58
2022/10/09 03:38:19;;;;;;;15.05;8.48;;;;;;;;;;5055391;28;20200;-58
2022/10/09 03:40:46;;;;;;;14.88;8.45;;;;;;;;;;5055425;28;20207;-58
2022/10/09 03:43:13;;;;;;;18.60;8.80;;;;;;;;;;5055038;28;20266;-58
2022/10/09 03:45:41;;;;;;;16.77;8.27;;;;;;;;;;5055210;28;20605;-58
2022/10/09 03:48:09;;;;;;;18.25;8.05;;;;;;;;;;5055213;28;20204;-58
2022/10/09 03:50:37;;;;;;;15.43;8.02;;;;;;;;;;5055169;28;20214;-58
2022/10/09 03:53:05;;;;;;;17.00;8.77;;;;;;;;;;5055845;28;20251;-58
2022/10/09 03:55:32;;;;;;;12.40;8.30;;;;;;;;;;5055632;28;20204;-57
2022/10/09 03:57:59;;;;;;;17.40;8.73;;;;;;;;;;5055418;28;20204;-58
2022/10/09 04:00:27;;;;;;;19.33;9.13;;;;;;;;;;5054966;28;20235;-57
2022/10/09 04:02:53;;;;;;;13.52;8.75;;;;;;;;;;5054962;28;20219;-57
2022/10/09 04:05:20;;;;;;;19.80;9.60;;;;;;;;;;5054887;28;20212;-57
2022/10/09 04:07:48;;;;;;;18.13;9.30;;;;;;;;;;5055200;28;20219;-58
2022/10/09 04:10:14;;;;;;;15.35;8.45;;;;;;;;;;5055261;28;20208;-58
2022/10/09 04:12:41;;;;;;;11.85;8.40;;;;;;;;;;5055222;28;20231;-58
2022/10/09 04:15:09;;;;;;;14.68;9.00;;;;;;;;;;5054912;28;20203;-57
2022/10/09 04:17:36;;;;;;;15.75;7.68;;;;;;;;;;5055328;28;20204;-58
2022/10/09 04:20:03;;;;;;;11.63;8.32;;;;;;;;;;5049639;28;20398;-57
2022/10/09 04:22:30;;;;;;;15.02;7.22;;;;;;;;;;5034804;28;20261;-58
2022/10/09 04:24:57;;;;;;;13.00;7.80;;;;;;;;;;5034753;28;20354;-57
2022/10/09 04:27:24;;;;;;;13.60;7.55;;;;;;;;;;5034668;28;20211;-58
2022/10/09 04:29:51;;;;;;;11.35;8.32;;;;;;;;;;5034700;28;20216;-58
2022/10/09 04:32:18;;;;;;;15.95;8.23;;;;;;;;;;5034961;28;20204;-58
2022/10/09 04:34:44;;;;;;;13.57;6.97;;;;;;;;;;5034386;28;20323;-58
2022/10/09 04:37:11;;;;;;;12.15;6.72;;;;;;;;;;5034530;28;20204;-58
2022/10/09 04:39:39;;;;;;;12.95;6.25;;;;;;;;;;5034398;28;20209;-58
2022/10/09 04:42:06;;;;;;;12.63;6.57;;;;;;;;;;5034454;28;20270;-57
2022/10/09 04:44:33;;;;;;;12.50;6.85;;;;;;;;;;5050083;28;20211;-58
2022/10/09 04:47:00;;;;;;;13.65;6.38;;;;;;;;;;5054475;28;20222;-57
2022/10/09 04:49:26;;;;;;;11.02;6.55;;;;;;;;;;5054345;28;20655;-58
2022/10/09 04:51:53;;;;;;;15.50;6.80;;;;;;;;;;5054133;28;20208;-57
2022/10/09 04:54:21;;;;;;;15.23;6.53;;;;;;;;;;5056054;28;20231;-58
2022/10/09 04:56:48;;;;;;;12.65;6.10;;;;;;;;;;5058292;28;20228;-58
2022/10/09 04:59:15;;;;;;;9.95;6.28;;;;;;;;;;5057996;28;20235;-57
2022/10/09 05:01:41;;;;;;;15.15;6.63;;;;;;;;;;5058420;28;20204;-57
2022/10/09 05:04:08;;;;;;;12.82;6.15;;;;;;;;;;5058127;28;20204;-57
2022/10/09 05:06:35;;;;;;;10.07;5.93;;;;;;;;;;5056644;28;20212;-58
2022/10/09 05:09:03;;;;;;;8.95;5.15;;;;;;;;;;5057931;28;20223;-58
2022/10/09 05:11:29;;;;;;;8.70;5.70;;;;;;;;;;5058155;28;20215;-58
2022/10/09 05:13:57;;;;;;;10.10;4.88;;;;;;;;;;5058098;28;20224;-58
2022/10/09 05:16:26;;;;;;;7.70;4.90;;;;;;;;;;5057823;28;20651;-58
2022/10/09 05:18:55;;;;;;;7.32;4.68;;;;;;;;;;5057945;28;20264;-58
2022/10/09 05:21:24;;;;;;;9.98;5.13;;;;;;;;;;5058072;28;20223;-58
2022/10/09 05:23:53;;;;;;;7.88;4.80;;;;;;;;;;5058016;28;20212;-58
2022/10/09 05:26:21;;;;;;;6.70;4.95;;;;;;;;;;5058129;28;20250;-58
2022/10/09 05:28:49;;;;;;;7.90;4.72;;;;;;;;;;5058015;28;20265;-58
2022/10/09 05:31:27;;;;;;;8.98;5.35;;;;;;;;;;5058117;28;20204;-58
2022/10/09 05:33:57;;;;;;;9.82;5.22;;;;;;;;;;5057728;28;20211;-58
2022/10/09 05:36:24;;;;;;;9.23;5.10;;;;;;;;;;5057239;28;20246;-57
2022/10/09 05:38:51;;;;;;;13.27;5.72;;;;;;;;;;5056296;28;20203;-58
2022/10/09 05:41:19;;;;;;;10.35;5.45;;;;;;;;;;5056209;28;20203;-58
2022/10/09 05:43:47;;;;;;;11.45;5.55;;;;;;;;;;5056754;28;20200;-58
2022/10/09 05:46:20;;;;;;;11.75;5.43;;;;;;;;;;5053670;28;20192;-58
2022/10/09 05:48:52;;;;;;;13.38;6.05;;;;;;;;;;5056420;28;20279;-57
2022/10/09 05:51:27;;;;;;;8.57;4.82;;;;;;;;;;5054901;28;20200;-58
2022/10/09 05:53:55;;;;;;;11.70;5.28;;;;;;;;;;5053794;28;20214;-57
2022/10/09 05:56:31;;;;;;;9.93;4.93;;;;;;;;;;5056060;28;20254;-58
2022/10/09 05:59:02;;;;;;;9.02;5.60;;;;;;;;;;5053708;28;20195;-58
2022/10/09 06:01:32;;;;;;;12.23;5.53;;;;;;;;;;5054770;28;20623;-58
2022/10/09 06:03:59;;;;;;;9.23;5.30;;;;;;;;;;5052266;28;20878;-58
2022/10/09 06:06:29;;;;;;;10.35;5.57;;;;;;;;;;5054393;28;20200;-59
2022/10/09 06:08:57;;;;;;;11.43;5.85;;;;;;;;;;5051935;28;20207;-58
2022/10/09 06:11:27;;;;;;;12.85;5.57;;;;;;;;;;5053978;28;20199;-57
2022/10/09 06:13:55;;;;;;;10.13;5.28;;;;;;;;;;5050363;28;20223;-59
2022/10/09 06:16:25;;;;;;;10.45;5.63;;;;;;;;;;5053605;28;20196;-59
2022/10/09 06:18:53;;;;;;;9.88;5.43;;;;;;;;;;5053203;28;20196;-59
2022/10/09 06:21:20;;;;;;;10.68;5.90;;;;;;;;;;5051111;28;20541;-57
2022/10/09 06:23:52;;;;;;;9.23;4.95;;;;;;;;;;5051235;28;20266;-60
2022/10/09 06:26:20;;;;;;;12.73;4.88;;;;;;;;;;5052972;28;20192;-58
2022/10/09 06:28:47;;;;;;;10.43;4.38;;;;;;;;;;5052791;28;20202;-59
2022/10/09 06:31:20;;;;;;;6.68;3.88;;;;;;;;;;5051786;28;20192;-59
2022/10/09 06:33:48;;;;;;;10.50;4.15;;;;;;;;;;5048469;28;20282;-60
2022/10/09 06:36:20;;;;;;;8.48;3.25;;;;;;;;;;5050929;28;20220;-59
2022/10/09 06:38:48;;;;;;;6.35;2.75;;;;;;;;;;5051378;28;20670;-59
2022/10/09 06:41:17;;;;;;;7.68;3.08;;;;;;;;;;5050272;28;20228;-59
2022/10/09 06:43:53;;;;;;;11.77;3.67;;;;;;;;;;5051472;28;20220;-59
2022/10/09 06:46:23;;;;;;;7.65;2.70;;;;;;;;;;5051877;28;20318;-59
2022/10/09 06:48:50;;;;;;;7.55;2.85;;;;;;;;;;5050878;28;20219;-60
2022/10/09 06:51:19;;;;;;;12.48;2.95;;;;;;;;;;5052723;28;20212;-59
2022/10/09 06:53:51;;;;;;;6.05;2.80;;;;;;;;;;5047960;28;20227;-61
2022/10/09 06:56:20;;;;;;;7.88;3.08;;;;;;;;;;5050136;28;20307;-65
2022/10/09 06:58:48;;;;;;;7.32;3.25;;;;;;;;;;5009730;28;1285512;-59
2022/10/09 07:01:17;;;;;;;8.40;3.90;;;;;;;;;;5052403;28;20220;-61
2022/10/09 07:03:47;;;;;;;11.75;4.10;;;;;;;;;;5046922;28;20220;-61
2022/10/09 07:06:17;;;;;;;7.35;3.97;;;;;;;;;;5052564;28;20220;-63
2022/10/09 07:08:46;;;;;;;9.68;4.60;;;;;;;;;;5053370;28;20227;-62
2022/10/09 07:11:21;;;;;;;8.90;4.05;;;;;;;;;;5049276;28;20220;-61
2022/10/09 07:13:50;;;;;;;9.82;5.25;;;;;;;;;;5052535;28;20227;-59
2022/10/09 07:16:22;;;;;;;11.80;5.15;;;;;;;;;;5050898;28;20224;-60
2022/10/09 07:18:50;;;;;;;12.38;4.95;;;;;;;;;;5053380;28;20224;-60
2022/10/09 07:21:18;;;;;;;9.85;4.15;;;;;;;;;;5054626;28;20311;-63
2022/10/09 07:23:45;;;;;;;9.75;4.60;;;;;;;;;;5056575;28;20304;-60
2022/10/09 07:26:17;;;;;;;8.25;4.05;;;;;;;;;;5056134;28;20216;-60
2022/10/09 07:28:44;;;;;;;10.57;4.03;;;;;;;;;;5064611;28;20662;-60
2022/10/09 07:31:12;;;;;;;8.18;4.05;;;;;;;;;;5058165;28;20683;-60
2022/10/09 07:33:40;;;;;;;7.95;4.60;;;;;;;;;;5053384;28;20297;-60
2022/10/09 07:36:08;;;;;;;6.95;4.55;;;;;;;;;;5049007;28;20646;-60
2022/10/09 07:38:35;;;;;;;6.97;4.90;;;;;;;;;;5061038;28;20686;-60
2022/10/09 07:41:05;;;;;;;7.53;4.97;;;;;;;;;;5061715;28;20369;-60
2022/10/09 07:43:36;;;;;;;13.52;5.50;;;;;;;;;;5060798;28;20239;-60
2022/10/09 07:46:05;;;;;;;10.48;5.85;;;;;;;;;;5062516;28;20215;-62
2022/10/09 07:48:33;;;;;;;11.57;5.53;;;;;;;;;;5052859;28;20227;-61
2022/10/09 07:51:16;;;;;;;11.65;5.13;;;;;;;;;;5063369;28;20254;-60
2022/10/09 07:53:43;;;;;;;8.40;4.65;;;;;;;;;;5061466;28;20228;-60
2022/10/09 07:56:15;;;;;;;9.88;4.75;;;;;;;;;;5058537;28;20339;-60
2022/10/09 07:58:42;;;;;;;11.43;5.63;;;;;;;;;;5054637;28;20212;-60
2022/10/09 08:01:09;;;;;;;13.07;5.53;;;;;;;;;;5069900;28;20250;-60
2022/10/09 08:03:39;;;;;;;10.75;6.53;;;;;;;;;;5045060;28;20281;-61
2022/10/09 08:06:07;;;;;;;10.27;5.97;;;;;;;;;;5054931;28;20255;-60
2022/10/09 08:08:34;;;;;;;9.57;6.30;;;;;;;;;;5057645;28;20234;-60
2022/10/09 08:11:07;;;;;;;10.05;6.05;;;;;;;;;;5052423;28;20289;-61
2022/10/09 08:13:34;;;;;;;11.30;6.50;;;;;;;;;;5063095;28;20538;-60
2022/10/09 08:16:02;;;;;;;9.95;5.90;;;;;;;;;;5060582;28;20235;-60
2022/10/09 08:18:29;;;;;;;9.63;5.40;;;;;;;;;;5033519;28;20220;-60
2022/10/09 08:21:05;;;;;;;9.57;5.18;;;;;;;;;;5060193;28;20728;-59
2022/10/09 08:23:32;;;;;;;8.07;5.18;;;;;;;;;;5056209;28;20268;-60
2022/10/09 08:26:00;;;;;;;12.43;5.47;;;;;;;;;;5057637;28;20227;-60
2022/10/09 08:28:26;;;;;;;10.60;4.55;;;;;;;;;;5051412;28;20299;-62
2022/10/09 08:30:53;;;;;;;8.55;4.22;;;;;;;;;;5056302;28;20227;-61
2022/10/09 08:33:22;;;;;;;8.82;4.13;;;;;;;;;;5056844;28;20369;-60
2022/10/09 08:35:50;;;;;;;10.15;4.07;;;;;;;;;;5058635;28;20558;-60
2022/10/09 08:38:17;;;;;;;7.80;3.35;;;;;;;;;;5060728;28;20299;-59
2022/10/09 08:41:08;;;;;;;4.25;3.28;;;;;;;;;;5057423;28;20669;-60
2022/10/09 08:43:40;;;;;;;6.13;3.38;;;;;;;;;;5062786;28;20227;-60
2022/10/09 08:46:18;;;;;;;5.13;3.10;;;;;;;;;;5061587;28;20677;-59
2022/10/09 08:48:48;;;;;;;7.00;3.58;;;;;;;;;;5061720;28;20608;-59
2022/10/09 08:51:35;;;;;;;8.32;4.55;;;;;;;;;;5060923;28;20235;-61
2022/10/09 08:54:33;;;;;;;10.15;5.18;;;;;;;;;;5062600;28;20742;-60
2022/10/09 08:57:03;;;;;;;8.63;4.05;;;;;;;;;;5055005;28;20299;-59
2022/10/09 08:59:30;;;;;;;8.13;4.40;;;;;;;;;;5059869;28;20343;-62
2022/10/09 09:02:23;;;;;;;7.43;4.28;;;;;;;;;;5060015;28;20244;-60
2022/10/09 09:05:21;;;;;;;7.63;3.95;;;;;;;;;;5030685;28;20283;-59
2022/10/09 09:08:08;;;;;;;7.43;3.38;;;;;;;;;;5061776;28;20258;-59
2022/10/09 09:10:56;;;;;;;9.95;3.28;;;;;;;;;;5059522;28;20228;-62
2022/10/09 09:13:34;;;;;;;6.55;2.80;;;;;;;;;;5058451;28;20219;-61
2022/10/09 09:16:57;;;;;;;6.00;2.70;;;;;;;;;;5056743;28;20300;-61
2022/10/09 09:19:39;;;;;;;5.78;2.75;;;;;;;;;;4989880;28;20233;-58
2022/10/09 09:22:11;;;;;;;6.13;3.25;;;;;;;;;;4991376;28;20292;-54
2022/10/09 09:24:55;;;;;;;8.93;3.40;;;;;;;;;;4991876;28;20665;-55
2022/10/09 09:27:29;;;;;;;7.95;3.40;;;;;;;;;;4992167;28;20239;-60
2022/10/09 09:30:15;;;;;;;13.23;3.63;;;;;;;;;;4996600;28;20225;-58
2022/10/09 09:33:08;;;;;;;9.32;4.18;;;;;;;;;;4972396;28;20634;-58
2022/10/09 09:35:48;;;;;;;8.43;4.35;;;;;;;;;;4960115;28;20227;-55
2022/10/09 09:38:15;;;;;;;11.23;4.10;;;;;;;;;;4973807;28;20202;-54
2022/10/09 09:40:43;;;;;;;6.75;3.80;;;;;;;;;;4975954;28;20657;-55
2022/10/09 09:43:22;;;;;;;6.75;4.38;;;;;;;;;;4977677;28;20217;-54
2022/10/09 09:45:56;;;;;;;8.13;4.20;;;;;;;;;;4977194;28;20264;-55
2022/10/09 09:48:38;;;;;;;10.73;4.00;;;;;;;;;;4961421;28;20211;-57
2022/10/09 09:51:13;;;;;;;7.95;4.47;;;;;;;;;;5036870;28;20654;-55
2022/10/09 09:54:03;;;;;;;8.35;4.53;;;;;;;;;;5037640;28;20200;-55
2022/10/09 09:56:39;;;;;;;9.88;4.95;;;;;;;;;;5036633;28;20196;-55
2022/10/09 09:59:37;;;;;;;7.65;3.90;;;;;;;;;;5037031;28;20264;-55
2022/10/09 10:02:04;;;;;;;6.18;3.70;;;;;;;;;;5037847;28;20200;-55
2022/10/09 10:04:31;;;;;;;7.25;3.97;;;;;;;;;;5037544;28;20266;-56
2022/10/09 10:06:59;;;;;;;8.32;3.80;;;;;;;;;;5037292;28;20200;-55
2022/10/09 10:09:26;;;;;;;8.30;3.42;;;;;;;;;;5036465;28;20207;-55
2022/10/09 10:11:56;;;;;;;6.22;3.90;;;;;;;;;;5037850;28;20204;-55
2022/10/09 10:14:24;;;;;;;7.57;3.50;;;;;;;;;;5036533;28;20316;-54
2022/10/09 10:16:53;;;;;;;7.47;3.78;;;;;;;;;;5036497;28;20287;-56
2022/10/09 10:19:23;;;;;;;8.05;3.58;;;;;;;;;;5037032;28;20200;-55
2022/10/09 10:22:05;;;;;;;8.07;3.75;;;;;;;;;;5036213;28;20407;-54
2022/10/09 10:24:41;;;;;;;7.07;3.55;;;;;;;;;;5037051;28;20213;-55
2022/10/09 10:27:32;;;;;;;5.68;3.38;;;;;;;;;;5035996;28;20650;-56
2022/10/09 10:30:02;;;;;;;9.95;3.30;;;;;;;;;;5037077;28;20591;-55
2022/10/09 10:32:33;;;;;;;6.32;3.10;;;;;;;;;;5035934;28;20288;-56
2022/10/09 10:35:05;;;;;;;5.78;2.83;;;;;;;;;;5035963;28;20229;-56
2022/10/09 10:37:40;;;;;;;5.82;2.60;;;;;;;;;;5035989;28;20204;-56
2022/10/09 10:40:16;;;;;;;5.13;3.00;;;;;;;;;;5036028;28;20200;-55
2022/10/09 10:42:53;;;;;;;5.82;2.90;;;;;;;;;;5036050;28;20517;-55
2022/10/09 10:45:43;;;;;;;7.75;2.65;;;;;;;;;;5036062;28;20219;-55
2022/10/09 10:48:14;;;;;;;2.63;1.85;;;;;;;;;;5037001;28;20224;-54
2022/10/09 10:50:47;;;;;;;2.97;1.50;;;;;;;;;;5035485;28;20209;-56
2022/10/09 10:53:35;;;;;;;5.53;2.15;;;;;;;;;;5035303;28;20262;-55
2022/10/09 10:56:07;;;;;;;6.63;2.30;;;;;;;;;;5035757;28;20223;-55
2022/10/09 10:58:56;;;;;;;4.55;1.80;;;;;;;;;;5036113;28;20282;-54
2022/10/09 11:01:57;;;;;;;6.40;2.22;;;;;;;;;;5036386;28;20204;-55
2022/10/09 11:04:59;;;;;;;3.08;1.88;;;;;;;;;;5036350;28;20291;-56
2022/10/09 11:07:51;;;;;;;5.60;2.20;;;;;;;;;;5019304;28;20212;-55
2022/10/09 11:10:30;;;;;;;3.75;1.80;;;;;;;;;;5056543;28;20180;-55
2022/10/09 11:13:05;;;;;;;6.50;1.58;;;;;;;;;;5056109;28;20669;-56
2022/10/09 11:15:41;;;;;;;5.45;1.83;;;;;;;;;;5055117;28;20662;-55
2022/10/09 11:18:14;;;;;;;4.13;1.80;;;;;;;;;;5055103;28;20218;-55
2022/10/09 11:20:46;;;;;;;3.70;1.70;;;;;;;;;;5055553;28;20619;-56
2022/10/09 11:23:30;;;;;;;4.07;1.50;;;;;;;;;;5054850;28;20215;-52
2022/10/09 11:26:12;;;;;;;4.47;1.70;;;;;;;;;;5054839;28;20689;-55
2022/10/09 11:28:48;;;;;;;5.35;1.50;;;;;;;;;;5055612;28;20646;-55
2022/10/09 11:31:19;;;;;;;5.10;1.90;;;;;;;;;;5055262;28;20231;-55
2022/10/09 11:33:51;;;;;;;6.65;2.08;;;;;;;;;;5055182;28;20184;-55
2022/10/09 11:36:32;;;;;;;6.82;1.83;;;;;;;;;;5036986;28;20299;-56
2022/10/09 11:39:04;;;;;;;7.40;2.00;;;;;;;;;;5046881;28;20215;-55
2022/10/09 11:41:33;;;;;;;4.93;2.08;;;;;;;;;;5052891;28;20220;-55
2022/10/09 11:44:38;;;;;;;3.53;1.95;;;;;;;;;;5052585;28;20236;-55
2022/10/09 11:47:16;;;;;;;5.05;2.03;;;;;;;;;;5041301;28;20231;-57
2022/10/09 11:49:55;;;;;;;8.57;2.53;;;;;;;;;;5053381;28;20235;-55
2022/10/09 11:52:40;;;;;;;6.13;2.40;;;;;;;;;;5053299;28;20247;-54
2022/10/09 11:55:18;;;;;;;4.78;2.00;;;;;;;;;;5053943;28;20228;-57
2022/10/09 11:57:45;;;;;;;4.65;2.00;;;;;;;;;;5054581;28;20318;-56
2022/10/09 12:00:14;;;;;;;3.28;1.70;;;;;;;;;;5052588;28;20323;-57
2022/10/09 12:02:42;;;;;;;4.63;1.70;;;;;;;;;;5045546;28;20553;-56
2022/10/09 12:05:18;;;;;;;4.32;1.30;;;;;;;;;;5033930;28;20240;-57
2022/10/09 12:07:45;;;;;;;5.20;1.80;;;;;;;;;;5036663;28;20232;-55
2022/10/09 12:10:32;;;;;;;7.45;1.83;;;;;;;;;;5054053;28;20223;-55
2022/10/09 12:13:05;;;;;;;6.78;2.72;;;;;;;;;;5053623;28;20232;-56
2022/10/09 12:15:39;;;;;;;8.07;2.78;;;;;;;;;;5054211;28;20613;-56
2022/10/09 12:18:30;;;;;;;2.28;1.50;;;;;;;;;;5053869;28;20272;-58
2022/10/09 12:21:00;;;;;;;4.97;2.05;;;;;;;;;;5033689;28;20232;-55
2022/10/09 12:23:31;;;;;;;5.82;1.70;;;;;;;;;;5033180;28;20243;-57
2022/10/09 12:25:59;;;;;;;3.03;1.60;;;;;;;;;;5033412;28;20224;-57
2022/10/09 12:28:35;;;;;;;3.05;1.40;;;;;;;;;;5033847;28;20225;-55
2022/10/09 12:31:04;;;;;;;4.75;1.80;;;;;;;;;;5033142;28;20695;-61
2022/10/09 12:33:45;;;;;;;6.47;2.08;;;;;;;;;;5033188;28;20243;-56
2022/10/09 12:36:20;;;;;;;4.57;1.75;;;;;;;;;;5032346;28;20236;-57
2022/10/09 12:38:47;;;;;;;5.70;1.98;;;;;;;;;;5034199;28;20297;-55
2022/10/09 12:41:31;;;;;;;7.72;2.05;;;;;;;;;;5033761;28;20225;-55
2022/10/09 12:43:58;;;;;;;3.78;1.92;;;;;;;;;;5033282;28;20683;-56
2022/10/09 12:46:29;;;;;;;5.18;1.92;;;;;;;;;;5033676;28;20220;-56
2022/10/09 12:48:57;;;;;;;5.20;1.98;;;;;;;;;;5034127;28;20228;-56
2022/10/09 12:51:26;;;;;;;5.07;1.98;;;;;;;;;;5040563;28;20221;-55
2022/10/09 12:53:54;;;;;;;4.97;1.35;;;;;;;;;;5034830;28;20230;-57
2022/10/09 12:56:24;;;;;;;4.78;1.80;;;;;;;;;;5044566;28;20310;-57
2022/10/09 12:58:52;;;;;;;3.65;1.65;;;;;;;;;;5046048;28;20293;-59
2022/10/09 13:01:19;;;;;;;3.95;1.75;;;;;;;;;;5046734;28;20223;-57
2022/10/09 13:04:02;;;;;;;3.58;2.00;;;;;;;;;;5053694;28;20662;-58
2022/10/09 13:06:37;;;;;;;3.33;2.00;;;;;;;;;;5053494;28;20231;-58
2022/10/09 13:09:06;;;;;;;4.80;2.15;;;;;;;;;;5052643;28;20215;-58
2022/10/09 13:11:36;;;;;;;5.03;1.95;;;;;;;;;;5053036;28;20228;-57
2022/10/09 13:14:04;;;;;;;5.40;1.92;;;;;;;;;;5052432;28;20219;-59
2022/10/09 13:16:41;;;;;;;7.47;1.83;;;;;;;;;;5056906;28;20271;-57
2022/10/09 13:19:29;;;;;;;8.13;1.90;;;;;;;;;;5056522;28;20216;-59
2022/10/09 13:22:19;;;;;;;3.90;1.90;;;;;;;;;;5041424;28;20217;-57
2022/10/09 13:24:49;;;;;;;4.47;1.83;;;;;;;;;;5039511;28;20225;-57
2022/10/09 13:27:18;;;;;;;5.22;2.00;;;;;;;;;;5056552;28;20269;-59
2022/10/09 13:29:46;;;;;;;4.75;1.80;;;;;;;;;;5044665;28;20224;-58
2022/10/09 13:32:15;;;;;;;5.03;1.80;;;;;;;;;;5052125;28;20678;-58
2022/10/09 13:34:43;;;;;;;4.85;1.80;;;;;;;;;;5043582;28;20236;-58
2022/10/09 13:37:12;;;;;;;4.28;1.83;;;;;;;;;;5047163;28;20654;-59
2022/10/09 13:39:40;;;;;;;7.78;1.83;;;;;;;;;;5037269;28;20294;-59
2022/10/09 13:42:09;;;;;;;3.67;2.15;;;;;;;;;;5037019;28;20234;-59
2022/10/09 13:44:36;;;;;;;2.58;1.75;;;;;;;;;;5036590;28;20224;-60
2022/10/09 13:47:04;;;;;;;3.78;1.58;;;;;;;;;;5037192;28;20237;-59
2022/10/09 13:49:31;;;;;;;4.15;1.73;;;;;;;;;;5036965;28;20252;-59
2022/10/09 13:51:57;;;;;;;4.55;2.00;;;;;;;;;;5053285;28;20220;-55
2022/10/09 13:54:25;;;;;;;4.60;2.00;;;;;;;;;;5056125;28;20307;-59
2022/10/09 13:56:51;;;;;;;5.57;1.73;;;;;;;;;;5049876;28;20569;-60
2022/10/09 13:59:18;;;;;;;3.03;1.60;;;;;;;;;;5036553;28;20286;-59
2022/10/09 14:01:45;;;;;;;6.05;2.42;;;;;;;;;;5036823;28;20228;-59
2022/10/09 14:04:12;;;;;;;7.68;2.20;;;;;;;;;;5036195;28;20225;-59
2022/10/09 14:06:39;;;;;;;3.78;1.80;;;;;;;;;;5036535;28;20236;-58
2022/10/09 14:09:06;;;;;;;6.47;2.05;;;;;;;;;;5035434;28;20228;-59
2022/10/09 14:11:33;;;;;;;5.10;2.10;;;;;;;;;;5036763;28;20286;-60
2022/10/09 14:14:00;;;;;;;3.13;1.90;;;;;;;;;;5036531;28;20756;-60
2022/10/09 14:16:28;;;;;;;3.13;1.52;;;;;;;;;;5036082;28;20239;-60
2022/10/09 14:19:00;;;;;;;10.98;4.15;;;;;;;;;;5036028;28;20744;-59
2022/10/09 14:21:28;;;;;;;4.43;1.90;;;;;;;;;;5036305;28;20220;-57
2022/10/09 14:23:57;;;;;;;2.30;1.83;;;;;;;;;;5036325;28;20702;-57
2022/10/09 14:26:25;;;;;;;11.27;4.05;;;;;;;;;;5035857;28;20236;-56
2022/10/09 14:28:53;;;;;;;5.22;1.88;;;;;;;;;;5036081;28;20236;-57
2022/10/09 14:31:20;;;;;;;3.92;1.88;;;;;;;;;;5051813;28;20259;-58
2022/10/09 14:33:47;;;;;;;6.43;2.08;;;;;;;;;;5055767;28;20220;-58
2022/10/09 14:36:20;;;;;;;5.85;2.72;;;;;;;;;;5054466;28;20219;-58
2022/10/09 14:38:47;;;;;;;9.13;2.83;;;;;;;;;;5053155;28;20250;-59
2022/10/09 14:41:16;;;;;;;9.23;3.90;;;;;;;;;;5054411;28;20258;-59
2022/10/09 14:43:44;;;;;;;12.82;4.70;;;;;;;;;;5052566;28;20242;-61
2022/10/09 14:46:16;;;;;;;7.95;3.28;;;;;;;;;;5054469;28;20552;-58
2022/10/09 14:48:44;;;;;;;19.15;6.93;;;;;;;;;;5051931;28;20224;-58
2022/10/09 14:51:23;;;;;;;13.90;5.88;;;;;;;;;;5054580;28;20227;-57
2022/10/09 14:53:50;;;;;;;7.00;3.20;;;;;;;;;;5056226;28;20557;-56
2022/10/09 14:56:19;;;;;;;13.85;7.78;;;;;;;;;;5055457;28;20232;-56
2022/10/09 14:58:46;;;;;;;9.30;4.28;;;;;;;;;;5045394;28;20235;-58
2022/10/09 15:01:15;;;;;;;6.93;3.50;;;;;;;;;;5053095;28;20228;-59